createdAt,value
2018-07-25T00:01:49.899Z,68.37
2018-07-25T00:04:18.273Z,69.24
2018-07-25T00:06:46.662Z,69.51
2018-07-25T00:09:15.029Z,69.80
2018-07-25T00:11:43.472Z,69.69
2018-07-25T00:14:11.834Z,69.12
2018-07-25T00:16:40.226Z,69.79
2018-07-25T00:19:08.622Z,70.08
2018-07-25T00:21:37.030Z,69.79
2018-07-25T00:24:05.405Z,69.78
2018-07-25T00:26:33.817Z,70.59
2018-07-25T00:29:02.196Z,69.94
2018-07-25T00:31:30.586Z,70.57
2018-07-25T00:33:58.963Z,70.25
2018-07-25T00:36:27.362Z,70.25
2018-07-25T00:38:55.726Z,70.31
2018-07-25T00:41:24.125Z,70.64
2018-07-25T00:43:52.499Z,69.98
2018-07-25T00:46:20.915Z,70.08
2018-07-25T00:48:49.289Z,70.14
2018-07-25T00:51:17.682Z,70.96
2018-07-25T00:53:46.053Z,70.26
2018-07-25T00:56:14.454Z,70.88
2018-07-25T00:58:42.825Z,70.60
2018-07-25T01:01:11.217Z,70.09
2018-07-25T01:03:39.582Z,70.99
2018-07-25T01:06:07.978Z,70.11
2018-07-25T01:08:36.358Z,70.31
2018-07-25T01:11:04.763Z,70.40
2018-07-25T01:13:33.141Z,70.91
2018-07-25T01:16:01.511Z,71.26
2018-07-25T01:18:29.906Z,70.69
2018-07-25T01:20:58.311Z,70.89
2018-07-25T01:23:26.731Z,71.02
2018-07-25T01:25:55.110Z,71.81
2018-07-25T01:28:23.506Z,71.63
2018-07-25T01:30:51.887Z,72.45
2018-07-25T01:33:20.331Z,72.47
2018-07-25T01:35:48.714Z,72.15
2018-07-25T01:38:17.118Z,72.56
2018-07-25T01:40:45.493Z,72.49
2018-07-25T01:43:14.038Z,72.25
2018-07-25T01:45:42.422Z,71.33
2018-07-25T01:48:10.905Z,72.08
2018-07-25T01:50:39.340Z,72.48
2018-07-25T01:53:07.738Z,72.80
2018-07-25T01:55:36.120Z,72.00
2018-07-25T01:58:04.538Z,72.98
2018-07-25T02:00:32.922Z,72.40
2018-07-25T02:03:01.332Z,73.14
2018-07-25T02:05:29.711Z,73.12
2018-07-25T02:07:58.114Z,72.81
2018-07-25T02:10:26.495Z,72.75
2018-07-25T02:12:54.947Z,72.91
2018-07-25T02:15:23.321Z,72.90
2018-07-25T02:17:51.786Z,73.08
2018-07-25T02:20:20.188Z,73.24
2018-07-25T02:22:48.584Z,73.67
2018-07-25T02:25:16.962Z,74.25
2018-07-25T02:27:45.366Z,73.45
2018-07-25T02:30:13.759Z,73.74
2018-07-25T02:32:42.154Z,74.47
2018-07-25T02:35:10.542Z,73.94
2018-07-25T02:37:38.946Z,74.82
2018-07-25T02:40:07.327Z,73.73
2018-07-25T02:42:35.816Z,74.68
2018-07-25T02:45:04.173Z,74.12
2018-07-25T02:47:32.582Z,74.79
2018-07-25T02:50:00.970Z,73.79
2018-07-25T02:52:29.394Z,74.86
2018-07-25T02:54:57.779Z,74.03
2018-07-25T02:57:26.181Z,74.62
2018-07-25T02:59:54.559Z,74.72
2018-07-25T03:02:22.963Z,74.59
2018-07-25T03:04:51.372Z,74.40
2018-07-25T03:07:19.774Z,73.89
2018-07-25T03:09:48.154Z,74.53
2018-07-25T03:12:16.585Z,73.81
2018-07-25T03:14:44.992Z,74.63
2018-07-25T03:17:13.427Z,74.18
2018-07-25T03:19:41.852Z,74.79
2018-07-25T03:22:10.225Z,75.12
2018-07-25T03:24:38.631Z,74.72
2018-07-25T03:27:07.102Z,74.33
2018-07-25T03:29:35.506Z,74.98
2018-07-25T03:32:03.890Z,74.54
2018-07-25T03:34:32.295Z,75.16
2018-07-25T03:37:02.346Z,74.46
2018-07-25T03:39:30.749Z,74.38
2018-07-25T03:41:59.150Z,75.27
2018-07-25T03:44:27.554Z,74.50
2018-07-25T03:46:55.930Z,75.52
2018-07-25T03:49:24.337Z,74.87
2018-07-25T03:51:52.713Z,74.18
2018-07-25T03:54:21.114Z,74.32
2018-07-25T03:56:49.502Z,74.08
2018-07-25T03:59:17.901Z,74.19
2018-07-25T04:01:46.282Z,74.32
2018-07-25T04:04:14.681Z,74.12
2018-07-25T04:06:43.073Z,74.55
2018-07-25T04:09:11.530Z,74.39
2018-07-25T04:11:39.873Z,74.70
2018-07-25T04:14:08.278Z,73.41
2018-07-25T04:16:36.680Z,72.76
2018-07-25T04:19:05.329Z,72.55
2018-07-25T04:21:33.723Z,71.48
2018-07-25T04:24:02.120Z,71.40
2018-07-25T04:26:30.490Z,70.58
2018-07-25T04:28:59.543Z,69.97
2018-07-25T04:31:27.942Z,69.24
2018-07-25T04:33:56.338Z,69.12
2018-07-25T04:36:24.722Z,68.54
2018-07-25T04:38:53.123Z,67.82
2018-07-25T04:41:21.493Z,66.18
2018-07-25T04:43:49.894Z,65.83
2018-07-25T04:46:18.431Z,64.51
2018-07-25T04:48:46.692Z,64.30
2018-07-25T04:51:15.111Z,63.81
2018-07-25T04:53:43.510Z,64.26
2018-07-25T04:56:12.052Z,64.50
2018-07-25T04:58:40.408Z,64.82
2018-07-25T05:01:08.784Z,64.59
2018-07-25T05:03:37.186Z,64.44
2018-07-25T05:06:05.584Z,63.96
2018-07-25T05:08:34.004Z,64.30
2018-07-25T05:11:02.383Z,64.76
2018-07-25T05:13:30.790Z,64.06
2018-07-25T05:15:59.178Z,64.87
2018-07-25T05:18:27.566Z,64.34
2018-07-25T05:20:55.985Z,65.27
2018-07-25T05:23:24.392Z,64.48
2018-07-25T05:25:52.786Z,64.52
2018-07-25T05:28:21.174Z,64.39
2018-07-25T05:30:49.585Z,64.69
2018-07-25T05:33:17.985Z,65.32
2018-07-25T05:35:46.387Z,65.18
2018-07-25T05:38:14.872Z,64.63
2018-07-25T05:40:43.178Z,63.99
2018-07-25T05:43:11.561Z,63.79
2018-07-25T05:45:39.949Z,63.84
2018-07-25T05:48:08.453Z,63.82
2018-07-25T05:50:36.842Z,64.19
2018-07-25T05:53:05.214Z,63.32
2018-07-25T05:55:33.597Z,63.44
2018-07-25T05:58:01.966Z,62.86
2018-07-25T06:00:30.362Z,62.75
2018-07-25T06:02:58.840Z,61.80
2018-07-25T06:05:27.189Z,62.34
2018-07-25T06:07:55.558Z,60.96
2018-07-25T06:10:23.949Z,60.49
2018-07-25T06:12:52.362Z,60.20
2018-07-25T06:15:20.745Z,60.41
2018-07-25T06:17:49.186Z,59.29
2018-07-25T06:20:17.610Z,59.92
2018-07-25T06:22:45.989Z,58.80
2018-07-25T06:25:14.395Z,58.05
2018-07-25T06:27:42.769Z,58.59
2018-07-25T06:30:11.192Z,57.69
2018-07-25T06:32:39.781Z,58.64
2018-07-25T06:35:08.179Z,57.29
2018-07-25T06:37:36.570Z,57.02
2018-07-25T06:40:05.981Z,56.64
2018-07-25T06:42:34.343Z,55.20
2018-07-25T06:45:02.739Z,54.52
2018-07-25T06:47:31.119Z,54.63
2018-07-25T06:49:59.510Z,52.87
2018-07-25T06:52:27.877Z,52.82
2018-07-25T06:54:56.265Z,52.20
2018-07-25T06:57:24.666Z,51.21
2018-07-25T06:59:53.067Z,51.89
2018-07-25T07:02:21.446Z,51.37
2018-07-25T07:04:49.838Z,51.51
2018-07-25T07:07:18.204Z,50.40
2018-07-25T07:09:46.606Z,50.07
2018-07-25T07:12:14.980Z,50.12
2018-07-25T07:14:43.362Z,49.83
2018-07-25T07:17:12.078Z,49.66
2018-07-25T07:19:40.466Z,50.04
2018-07-25T07:22:08.873Z,49.23
2018-07-25T07:24:37.250Z,49.55
2018-07-25T07:27:05.678Z,49.60
2018-07-25T07:29:34.046Z,48.27
2018-07-25T07:32:02.621Z,48.59
2018-07-25T07:34:30.990Z,49.38
2018-07-25T07:36:59.556Z,49.10
2018-07-25T07:39:27.913Z,49.28
2018-07-25T07:41:56.302Z,47.89
2018-07-25T07:44:24.674Z,46.88
2018-07-25T07:46:53.076Z,47.75
2018-07-25T07:49:21.454Z,46.86
2018-07-25T07:51:49.841Z,47.52
2018-07-25T07:54:18.210Z,47.49
2018-07-25T07:56:46.607Z,47.14
2018-07-25T07:59:15.017Z,46.19
2018-07-25T08:01:43.398Z,46.41
2018-07-25T08:04:11.771Z,46.81
2018-07-25T08:06:40.161Z,46.65
2018-07-25T08:09:10.878Z,47.64
2018-07-25T08:11:39.282Z,47.15
2018-07-25T08:14:07.655Z,46.54
2018-07-25T08:16:36.059Z,46.00
2018-07-25T08:19:04.524Z,46.04
2018-07-25T08:21:32.911Z,46.10
2018-07-25T08:24:01.291Z,46.37
2018-07-25T08:26:29.702Z,45.34
2018-07-25T08:28:58.067Z,45.43
2018-07-25T08:31:26.489Z,45.99
2018-07-25T08:33:54.860Z,44.50
2018-07-25T08:36:23.251Z,44.49
2018-07-25T08:38:51.618Z,44.29
2018-07-25T08:41:20.099Z,42.50
2018-07-25T08:43:48.430Z,43.03
2018-07-25T08:46:17.011Z,43.69
2018-07-25T08:48:45.395Z,41.78
2018-07-25T08:51:13.785Z,42.18
2018-07-25T08:53:42.167Z,41.49
2018-07-25T08:56:10.562Z,42.42
2018-07-25T08:58:38.933Z,41.13
2018-07-25T09:01:07.327Z,41.76
2018-07-25T09:03:35.702Z,40.66
2018-07-25T09:06:04.096Z,39.69
2018-07-25T09:08:32.470Z,39.65
2018-07-25T09:11:00.858Z,38.85
2018-07-25T09:13:29.242Z,39.24
2018-07-25T09:15:57.625Z,38.58
2018-07-25T09:18:26.032Z,38.29
2018-07-25T09:20:54.431Z,38.18
2018-07-25T09:23:23.075Z,37.73
2018-07-25T09:25:51.458Z,37.88
2018-07-25T09:28:19.849Z,37.98
2018-07-25T09:30:48.237Z,37.61
2018-07-25T09:33:16.655Z,36.97
2018-07-25T09:35:45.051Z,37.79
2018-07-25T09:38:13.461Z,37.31
2018-07-25T09:40:41.883Z,38.31
2018-07-25T09:43:10.310Z,37.43
2018-07-25T09:45:38.763Z,36.79
2018-07-25T09:48:07.198Z,36.96
2018-07-25T09:50:35.623Z,36.63
2018-07-25T09:53:04.132Z,35.97
2018-07-25T09:55:32.433Z,35.49
2018-07-25T09:58:00.858Z,36.28
2018-07-25T10:00:34.584Z,36.85
2018-07-25T10:03:03.015Z,36.16
2018-07-25T10:05:31.390Z,36.09
2018-07-25T10:07:59.821Z,35.67
2018-07-25T10:10:28.194Z,35.91
2018-07-25T10:12:56.608Z,35.35
2018-07-25T10:15:25.026Z,34.89
2018-07-25T10:17:54.114Z,35.75
2018-07-25T10:20:22.559Z,34.95
2018-07-25T10:22:50.991Z,36.01
2018-07-25T10:25:19.390Z,34.74
2018-07-25T10:27:48.031Z,35.68
2018-07-25T10:30:16.581Z,34.50
2018-07-25T10:32:45.056Z,36.60
2018-07-25T10:35:13.446Z,35.33
2018-07-25T10:37:41.911Z,34.98
2018-07-25T10:40:10.315Z,35.23
2018-07-25T10:42:38.760Z,35.80
2018-07-25T10:45:08.499Z,35.65
2018-07-25T10:47:36.953Z,35.66
2018-07-25T10:50:06.167Z,35.06
2018-07-25T10:52:34.615Z,35.95
2018-07-25T10:55:03.059Z,35.36
2018-07-25T10:57:31.746Z,35.66
2018-07-25T11:00:00.131Z,34.78
2018-07-25T11:02:28.550Z,35.46
2018-07-25T11:04:56.965Z,36.04
2018-07-25T11:07:25.393Z,34.77
2018-07-25T11:09:53.803Z,34.89
2018-07-25T11:12:22.530Z,34.75
2018-07-25T11:14:50.919Z,35.25
2018-07-25T11:17:19.325Z,33.39
2018-07-25T11:19:50.842Z,33.59
2018-07-25T11:22:19.262Z,33.85
2018-07-25T11:24:47.649Z,33.94
2018-07-25T11:27:16.036Z,34.68
2018-07-25T11:29:44.445Z,35.17
2018-07-25T11:32:12.906Z,34.45
2018-07-25T11:34:41.421Z,35.09
2018-07-25T11:37:09.896Z,35.20
2018-07-25T11:39:38.287Z,34.28
2018-07-25T11:42:06.663Z,34.22
2018-07-25T11:44:35.059Z,34.53
2018-07-25T11:47:03.429Z,33.80
2018-07-25T11:49:31.819Z,33.76
2018-07-25T11:52:00.187Z,33.60
2018-07-25T11:54:28.582Z,33.25
2018-07-25T11:56:56.948Z,32.21
2018-07-25T11:59:25.377Z,32.07
2018-07-25T12:01:53.866Z,31.85
2018-07-25T12:04:22.321Z,32.78
2018-07-25T12:06:50.702Z,31.52
2018-07-25T12:09:19.106Z,32.30
2018-07-25T12:11:48.202Z,31.13
2018-07-25T12:14:18.045Z,31.67
2018-07-25T12:16:46.451Z,31.98
2018-07-25T12:19:15.109Z,31.64
2018-07-25T12:21:43.493Z,32.18
2018-07-25T12:24:11.914Z,31.32
2018-07-25T12:26:40.419Z,31.76
2018-07-25T12:29:08.730Z,31.95
2018-07-25T12:31:37.130Z,31.80
2018-07-25T12:34:05.747Z,31.48
2018-07-25T12:36:34.146Z,31.17
2018-07-25T12:39:02.554Z,30.17
2018-07-25T12:41:30.951Z,31.00
2018-07-25T12:43:59.381Z,30.96
2018-07-25T12:46:27.775Z,30.29
2018-07-25T12:48:56.194Z,29.72
2018-07-25T12:51:24.638Z,29.70
2018-07-25T12:53:53.070Z,29.19
2018-07-25T12:56:21.462Z,30.09
2018-07-25T12:58:49.887Z,29.87
2018-07-25T13:01:18.310Z,29.90
2018-07-25T13:03:46.738Z,30.07
2018-07-25T13:06:15.113Z,29.71
2018-07-25T13:08:43.614Z,30.21
2018-07-25T13:11:11.994Z,29.60
2018-07-25T13:13:40.402Z,30.55
2018-07-25T13:16:08.786Z,30.28
2018-07-25T13:18:37.206Z,29.90
2018-07-25T13:21:05.629Z,28.53
2018-07-25T13:23:34.057Z,29.30
2018-07-25T13:26:02.471Z,29.40
2018-07-25T13:28:30.915Z,29.95
2018-07-25T13:30:59.346Z,30.13
2018-07-25T13:33:27.738Z,30.05
2018-07-25T13:35:56.204Z,29.21
2018-07-25T13:38:24.575Z,29.76
2018-07-25T13:40:53.024Z,30.67
2018-07-25T13:43:21.459Z,30.49
2018-07-25T13:45:49.928Z,30.39
2018-07-25T13:48:18.291Z,30.36
2018-07-25T13:50:46.713Z,30.17
2018-07-25T13:53:15.113Z,29.47
2018-07-25T13:55:43.537Z,29.56
2018-07-25T13:58:11.925Z,29.25
2018-07-25T14:00:40.353Z,29.48
2018-07-25T14:03:08.754Z,29.65
2018-07-25T14:05:37.170Z,29.33
2018-07-25T14:08:05.851Z,28.79
2018-07-25T14:10:34.262Z,28.65
2018-07-25T14:13:02.671Z,29.61
2018-07-25T14:15:31.098Z,29.29
2018-07-25T14:17:59.553Z,29.04
2018-07-25T14:20:27.974Z,29.36
2018-07-25T14:22:56.367Z,29.43
2018-07-25T14:25:25.111Z,29.48
2018-07-25T14:27:53.511Z,29.47
2018-07-25T14:30:22.115Z,29.40
2018-07-25T14:32:50.437Z,30.02
2018-07-25T14:35:18.850Z,29.60
2018-07-25T14:37:52.237Z,29.54
2018-07-25T14:40:20.759Z,29.15
2018-07-25T14:42:49.046Z,30.65
2018-07-25T14:45:17.455Z,29.85
2018-07-25T14:47:45.843Z,30.00
2018-07-25T14:50:14.353Z,30.96
2018-07-25T14:52:42.753Z,30.31
2018-07-25T14:55:11.175Z,30.50
2018-07-25T14:57:39.566Z,30.77
2018-07-25T15:00:07.999Z,30.32
2018-07-25T15:02:36.623Z,30.50
2018-07-25T15:05:05.559Z,30.49
2018-07-25T15:07:33.988Z,30.43
2018-07-25T15:10:02.385Z,30.07
2018-07-25T15:12:36.093Z,30.60
2018-07-25T15:15:05.138Z,29.80
2018-07-25T15:17:33.633Z,30.14
2018-07-25T15:20:02.070Z,30.65
2018-07-25T15:22:30.466Z,29.87
2018-07-25T15:24:58.895Z,30.56
2018-07-25T15:27:27.290Z,30.43
2018-07-25T15:29:55.711Z,30.27
2018-07-25T15:32:24.127Z,30.83
2018-07-25T15:34:52.554Z,31.40
2018-07-25T15:37:20.979Z,31.22
2018-07-25T15:39:49.404Z,31.53
2018-07-25T15:42:17.838Z,31.38
2018-07-25T15:44:46.274Z,30.89
2018-07-25T15:47:14.698Z,30.31
2018-07-25T15:49:43.102Z,31.80
2018-07-25T15:52:11.528Z,31.45
2018-07-25T15:54:39.914Z,30.46
2018-07-25T15:57:08.410Z,31.21
2018-07-25T15:59:36.818Z,31.42
2018-07-25T16:02:05.239Z,32.15
2018-07-25T16:04:33.635Z,34.48
2018-07-25T16:07:02.053Z,35.51
2018-07-25T16:09:30.450Z,36.22
2018-07-25T16:11:58.904Z,36.20
2018-07-25T16:14:27.310Z,35.82
2018-07-25T16:16:55.751Z,36.54
2018-07-25T16:19:24.149Z,36.33
2018-07-25T16:21:52.575Z,36.08
2018-07-25T16:24:20.975Z,36.78
2018-07-25T16:26:49.377Z,36.66
2018-07-25T16:29:17.766Z,37.31
2018-07-25T16:31:46.189Z,36.16
2018-07-25T16:34:14.592Z,36.24
2018-07-25T16:36:43.023Z,36.19
2018-07-25T16:39:14.539Z,37.13
2018-07-25T16:41:42.970Z,36.79
2018-07-25T16:44:11.602Z,36.53
2018-07-25T16:46:40.110Z,36.07
2018-07-25T16:49:08.669Z,35.57
2018-07-25T16:51:37.103Z,36.01
2018-07-25T16:54:05.550Z,35.01
2018-07-25T16:56:33.995Z,34.58
2018-07-25T16:59:02.367Z,34.23
2018-07-25T17:01:30.786Z,33.90
2018-07-25T17:03:59.181Z,33.37
2018-07-25T17:06:27.613Z,33.59
2018-07-25T17:08:56.007Z,33.24
2018-07-25T17:11:24.421Z,32.90
2018-07-25T17:13:52.815Z,33.13
2018-07-25T17:16:21.218Z,33.03
2018-07-25T17:18:49.615Z,32.48
2018-07-25T17:21:18.055Z,32.24
2018-07-25T17:23:46.439Z,32.86
2018-07-25T17:26:14.854Z,31.54
2018-07-25T17:28:43.246Z,31.73
2018-07-25T17:31:11.661Z,32.21
2018-07-25T17:33:40.064Z,32.84
2018-07-25T17:36:08.531Z,32.00
2018-07-25T17:38:36.931Z,32.84
2018-07-25T17:41:05.371Z,33.18
2018-07-25T17:43:33.786Z,33.90
2018-07-25T17:46:02.258Z,34.54
2018-07-25T17:48:30.683Z,35.34
2018-07-25T17:50:59.087Z,35.85
2018-07-25T17:53:27.525Z,35.58
2018-07-25T17:55:56.017Z,36.26
2018-07-25T17:58:24.439Z,37.18
2018-07-25T18:00:52.834Z,38.07
2018-07-25T18:03:21.268Z,37.81
2018-07-25T18:05:49.654Z,39.48
2018-07-25T18:08:18.063Z,38.98
2018-07-25T18:10:46.474Z,39.53
2018-07-25T18:13:20.334Z,40.13
2018-07-25T18:15:48.736Z,41.25
2018-07-25T18:18:17.129Z,40.78
2018-07-25T18:20:45.550Z,41.33
2018-07-25T18:23:13.974Z,42.24
2018-07-25T18:25:42.370Z,42.29
2018-07-25T18:28:10.791Z,41.76
2018-07-25T18:30:39.190Z,42.46
2018-07-25T18:33:07.702Z,41.61
2018-07-25T18:35:36.179Z,43.01
2018-07-25T18:38:04.742Z,43.13
2018-07-25T18:40:33.156Z,43.24
2018-07-25T18:43:01.586Z,42.97
2018-07-25T18:45:29.988Z,43.43
2018-07-25T18:47:58.413Z,43.60
2018-07-25T18:50:26.910Z,43.27
2018-07-25T18:52:55.333Z,43.89
2018-07-25T18:55:23.713Z,44.13
2018-07-25T18:57:52.127Z,44.37
2018-07-25T19:00:20.493Z,43.01
2018-07-25T19:02:48.890Z,43.56
2018-07-25T19:05:17.294Z,44.31
2018-07-25T19:07:45.713Z,44.77
2018-07-25T19:10:14.090Z,44.05
2018-07-25T19:12:42.469Z,45.21
2018-07-25T19:15:16.125Z,44.28
2018-07-25T19:17:44.509Z,45.40
2018-07-25T19:20:12.902Z,45.64
2018-07-25T19:22:41.290Z,45.36
2018-07-25T19:25:09.668Z,45.06
2018-07-25T19:27:38.058Z,44.24
2018-07-25T19:30:06.470Z,45.61
2018-07-25T19:32:34.863Z,45.93
2018-07-25T19:35:03.282Z,45.88
2018-07-25T19:37:31.670Z,46.37
2018-07-25T19:40:00.034Z,45.76
2018-07-25T19:42:28.435Z,46.11
2018-07-25T19:44:56.811Z,46.70
2018-07-25T19:47:25.177Z,46.40
2018-07-25T19:49:53.565Z,46.10
2018-07-25T19:52:21.946Z,46.56
2018-07-25T19:54:50.334Z,47.38
2018-07-25T19:57:18.728Z,47.01
2018-07-25T19:59:47.122Z,47.23
2018-07-25T20:02:15.566Z,48.36
2018-07-25T20:04:43.958Z,48.64
2018-07-25T20:07:12.331Z,47.98
2018-07-25T20:09:40.735Z,48.65
2018-07-25T20:12:09.121Z,49.04
2018-07-25T20:14:42.743Z,49.49
2018-07-25T20:17:11.114Z,50.15
2018-07-25T20:19:39.525Z,50.17
2018-07-25T20:22:07.917Z,50.60
2018-07-25T20:24:36.306Z,49.89
2018-07-25T20:27:04.690Z,50.28
2018-07-25T20:29:33.137Z,51.12
2018-07-25T20:32:01.511Z,51.28
2018-07-25T20:34:29.902Z,51.78
2018-07-25T20:36:58.270Z,50.99
2018-07-25T20:39:26.662Z,51.60
2018-07-25T20:41:55.026Z,52.79
2018-07-25T20:44:23.433Z,52.62
2018-07-25T20:46:51.806Z,53.07
2018-07-25T20:49:20.193Z,53.02
2018-07-25T20:51:48.571Z,52.96
2018-07-25T20:54:16.961Z,53.54
2018-07-25T20:56:45.335Z,53.83
2018-07-25T20:59:13.777Z,54.05
2018-07-25T21:01:42.141Z,54.80
2018-07-25T21:04:10.546Z,54.27
2018-07-25T21:06:38.926Z,54.03
2018-07-25T21:09:08.354Z,54.34
2018-07-25T21:11:36.754Z,54.41
2018-07-25T21:14:05.168Z,55.47
2018-07-25T21:16:33.546Z,55.80
2018-07-25T21:19:01.934Z,56.10
2018-07-25T21:21:30.326Z,56.02
2018-07-25T21:23:58.724Z,56.00
2018-07-25T21:26:27.094Z,55.86
2018-07-25T21:28:55.490Z,56.92
2018-07-25T21:31:23.857Z,56.75
2018-07-25T21:33:52.247Z,57.26
2018-07-25T21:36:20.614Z,56.90
2018-07-25T21:38:49.005Z,56.88
2018-07-25T21:41:17.370Z,57.96
2018-07-25T21:43:45.766Z,58.02
2018-07-25T21:46:14.133Z,58.21
2018-07-25T21:48:42.501Z,57.70
2018-07-25T21:51:10.900Z,57.91
2018-07-25T21:53:39.273Z,58.85
2018-07-25T21:56:07.670Z,58.34
2018-07-25T21:58:36.042Z,58.39
2018-07-25T22:01:10.627Z,58.82
2018-07-25T22:03:39.125Z,58.73
2018-07-25T22:06:07.531Z,58.84
2018-07-25T22:08:36.073Z,59.22
2018-07-25T22:11:04.461Z,59.50
2018-07-25T22:13:33.041Z,59.25
2018-07-25T22:16:01.653Z,59.42
2018-07-25T22:18:30.027Z,60.61
2018-07-25T22:20:58.450Z,59.71
2018-07-25T22:23:26.821Z,61.01
2018-07-25T22:25:55.225Z,60.48
2018-07-25T22:28:23.597Z,61.44
2018-07-25T22:30:52.001Z,61.42
2018-07-25T22:33:20.378Z,61.14
2018-07-25T22:35:48.767Z,60.75
2018-07-25T22:38:17.138Z,61.46
2018-07-25T22:40:45.534Z,60.57
2018-07-25T22:43:13.906Z,61.02
2018-07-25T22:45:42.302Z,60.63
2018-07-25T22:48:10.706Z,61.60
2018-07-25T22:50:39.226Z,60.61
2018-07-25T22:53:07.638Z,61.77
2018-07-25T22:55:36.093Z,62.19
2018-07-25T22:58:04.830Z,61.18
2018-07-25T23:00:33.222Z,62.14
2018-07-25T23:03:01.595Z,62.30
2018-07-25T23:05:29.985Z,61.57
2018-07-25T23:07:58.378Z,62.72
2018-07-25T23:10:26.826Z,62.99
2018-07-25T23:12:55.206Z,62.28
2018-07-25T23:15:23.614Z,63.28
2018-07-25T23:17:52.230Z,62.78
2018-07-25T23:20:20.650Z,62.95
2018-07-25T23:22:54.106Z,63.51
2018-07-25T23:25:22.510Z,64.64
2018-07-25T23:27:51.179Z,64.09
2018-07-25T23:30:19.882Z,64.92
2018-07-25T23:32:48.846Z,65.18
2018-07-25T23:35:17.246Z,65.03
2018-07-25T23:37:45.809Z,65.80
2018-07-25T23:40:14.218Z,65.33
2018-07-25T23:42:42.586Z,65.72
2018-07-25T23:45:10.981Z,65.79
2018-07-25T23:47:39.359Z,66.55
2018-07-25T23:50:07.775Z,66.03
2018-07-25T23:52:36.170Z,66.09
2018-07-25T23:55:04.762Z,67.17
2018-07-25T23:57:33.150Z,67.18
